Latest Weather Observations for Giles*

IDD60801

Issued at 9:05 am CST Thursday 24 April 2014 (issued every 30 minutes, with the page automatically refreshed every 10 minutes)

About weather observations | Map of weather stations | Latest weather observations for NT | Other Formats
Station Details ID: 013017 Name: GILES METEOROLOGICAL OFFICE Lat: -25.03 Lon: 128.30 Height: 598.0 m
Data from the previous 72 hours. | See also: Recent months at Giles*

* Giles observations are collected in the South Australia time zone, which includes daylight saving in the summer period. Therefore, Rain since 9am value is with respect to South Australia local time.

Date/Time
CST
Temp
°C
App
Temp
°C
Dew
Point
Rel
Hum
%
Delta-T
°C
Wind Press
QNH
hPa
Press
MSL
hPa
Rain
since 9 am
mm
Dir
 
Spd
km/h
Gust
km/h
Spd
kts
Gust
kts
24/09:00am 24.4 21.7 5.7 30 9.8 E 9 15 5 8 1017.7 1014.6 0.0
24/08:30am 21.6 19.8 8.0 41 7.3 E 7 9 4 5 1017.5 - 0.0
24/08:00am 18.6 16.9 8.2 50 5.5 E 7 9 4 5 1017.4 - 0.0
24/07:30am 17.1 15.4 7.7 54 4.9 E 6 9 3 5 1017.1 - 0.0
24/07:00am 17.4 15.4 7.3 51 5.2 ESE 7 9 4 5 1016.9 - 0.0
24/06:30am 19.9 16.0 5.5 39 7.3 E 15 19 8 10 1016.4 - 0.0
24/06:00am 20.5 15.8 5.3 37 7.7 E 19 26 10 14 1016.1 1013.0 0.0
24/05:30am 20.6 15.9 5.2 36 7.8 E 19 24 10 13 1016.2 - 0.0
24/05:00am 19.8 16.0 5.6 39 7.2 E 15 20 8 11 1016.2 - 0.0
24/04:30am 19.8 15.6 5.6 39 7.2 E 17 20 9 11 1016.2 - 0.0
24/04:00am 20.7 16.4 5.1 36 7.9 E 17 20 9 11 1016.3 - 0.0
24/03:30am 20.9 16.1 4.8 35 8.1 E 19 22 10 12 1016.3 - 0.0
24/03:00am 20.5 16.2 5.3 37 7.7 E 17 20 9 11 1016.3 1013.2 0.0
24/02:30am 19.7 15.5 5.5 39 7.2 E 17 20 9 11 1016.6 - 0.0
24/02:00am 20.5 15.8 5.1 36 7.8 E 19 24 10 13 1016.9 - 0.0
24/01:30am 20.9 16.6 5.1 35 8.0 E 17 22 9 12 1017.0 - 0.0
24/01:00am 20.7 16.1 5.4 36 7.8 E 19 24 10 13 1017.1 - 0.0
24/12:30am 21.3 16.4 5.2 35 8.2 E 20 28 11 15 1017.5 - 0.0
24/12:00am 20.8 16.9 5.5 36 7.8 E 15 19 8 10 1017.8 1014.7 0.0
 
Date/Time
CST
Temp
°C
App
Temp
°C
Dew
Point
Rel
Hum
%
Delta-T
°C
Wind Press
QNH
hPa
Press
MSL
hPa
Rain
since 9 am
mm
Dir
 
Spd
km/h
Gust
km/h
Spd
kts
Gust
kts
23/11:30pm 20.8 16.9 5.5 36 7.8 E 15 19 8 10 1017.6 - 0.0
23/11:00pm 20.9 16.9 5.1 35 8.0 E 15 20 8 11 1017.9 - 0.0
23/10:30pm 21.0 17.5 5.3 36 8.0 ESE 13 17 7 9 1018.0 - 0.0
23/10:00pm 21.1 17.5 5.1 35 8.1 E 13 15 7 8 1018.1 - 0.0
23/09:30pm 21.5 17.6 5.2 34 8.3 E 15 22 8 12 1017.9 - 0.0
23/09:00pm 21.3 18.3 6.0 37 7.9 ESE 11 15 6 8 1017.6 1014.5 0.0
23/08:30pm 21.8 18.8 6.0 35 8.2 ESE 11 11 6 6 1017.4 - 0.0
23/08:00pm 22.7 19.2 5.4 32 8.9 SE 13 13 7 7 1017.0 - 0.0
23/07:30pm 23.7 20.7 5.9 31 9.3 SSE 11 13 6 7 1016.5 - 0.0
23/07:00pm 25.5 22.6 4.9 26 10.7 ESE 9 13 5 7 1016.3 - 0.0
23/06:30pm 26.7 24.6 5.6 26 11.2 SE 6 7 3 4 1015.9 - 0.0
23/06:00pm 27.7 24.2 3.3 21 12.5 SE 11 15 6 8 1015.8 1012.7 0.0
23/05:30pm 29.3 24.2 0.9 16 14.1 SSE 17 22 9 12 1015.2 - 0.0
23/05:00pm 29.8 24.8 1.3 16 14.3 SSE 17 22 9 12 1015.3 - 0.0
23/04:30pm 29.7 25.8 1.4 16 14.2 S 11 20 6 11 1015.4 - 0.0
23/04:00pm 30.3 24.9 -1.7 12 15.3 S 17 24 9 13 1015.5 - 0.0
23/03:30pm 30.2 24.9 -0.6 13 15.0 S 17 26 9 14 1015.7 - 0.0
23/03:00pm 29.7 25.8 1.4 16 14.2 SW 11 28 6 15 1015.9 1012.8 0.0
23/02:30pm 30.0 25.2 0.1 14 14.7 SE 15 20 8 11 1016.0 - 0.0
23/02:00pm 29.9 24.7 -0.1 14 14.7 W 17 24 9 13 1016.4 - 0.0
23/01:30pm 28.9 25.6 2.6 18 13.4 SSW 9 19 5 10 1016.9 - 0.0
23/01:00pm 29.4 26.5 4.6 20 13.1 NW 9 13 5 7 1017.5 - 0.0
23/12:30pm 28.6 26.0 5.9 23 12.2 NNW 9 13 5 7 1018.0 - 0.0
23/12:00pm 27.8 26.0 7.1 27 11.3 E 6 13 3 7 1018.4 1015.3 0.0
23/11:30am 27.1 24.4 5.6 25 11.4 NNE 9 15 5 8 1018.8 - 0.0
23/11:00am 26.6 24.5 8.4 31 10.1 N 9 17 5 9 1019.2 - 0.0
23/10:30am 26.0 24.4 8.0 32 9.9 N 6 15 3 8 1019.4 - 0.0
23/10:00am 24.7 24.9 10.7 41 8.0 CALM 0 0 0 0 1019.4 - 0.0
23/09:30am 22.5 22.9 11.3 49 6.4 CALM 0 0 0 0 1019.4 - 0.0
23/09:00am 20.3 19.8 10.6 53 5.4 WNW 4 9 2 5 1019.3 1016.2 0.0
23/08:30am 18.2 18.1 10.8 62 4.1 E 2 7 1 4 1018.9 - 0.0
23/08:00am 16.1 14.9 10.2 68 3.2 E 7 13 4 7 1018.7 - 0.0
23/07:30am 13.9 12.2 10.0 77 2.1 SE 9 11 5 6 1018.6 - 0.0
23/07:00am 13.8 11.7 9.8 77 2.1 SE 11 13 6 7 1018.3 - 0.0
23/06:30am 14.4 12.0 9.9 74 2.4 E 13 15 7 8 1018.2 - 0.0
23/06:00am 14.3 11.4 9.8 74 2.4 ESE 15 17 8 9 1017.9 1014.8 0.0
23/05:30am 14.6 12.5 9.9 73 2.5 SSE 11 15 6 8 1018.0 - 0.0
23/05:00am 15.4 12.1 9.6 68 3.1 SE 17 20 9 11 1017.8 - 0.0
23/04:30am 17.8 14.4 9.2 57 4.6 E 17 20 9 11 1017.6 - 0.0
23/04:00am 17.9 14.5 9.1 56 4.7 E 17 22 9 12 1017.7 - 0.0
23/03:30am 18.3 14.9 9.0 54 5.0 E 17 20 9 11 1017.8 - 0.0
23/03:00am 18.4 14.6 9.1 54 5.0 E 19 22 10 12 1018.1 1015.0 0.0
23/02:30am 16.6 14.4 9.3 62 3.9 ESE 11 13 6 7 1018.4 - 0.0
23/02:00am 17.9 14.9 9.1 56 4.7 ESE 15 19 8 10 1018.4 - 0.0
23/01:30am 17.0 14.4 9.4 61 4.1 ESE 13 15 7 8 1018.6 - 0.0
23/01:00am 17.4 15.6 9.4 59 4.3 SSE 9 11 5 6 1018.9 - 0.0
23/12:30am 19.1 15.6 8.6 50 5.6 E 17 20 9 11 1018.9 - 0.0
23/12:00am 19.9 16.7 8.5 47 6.1 ESE 15 20 8 11 1019.0 1016.0 0.0
 
Date/Time
CST
Temp
°C
App
Temp
°C
Dew
Point
Rel
Hum
%
Delta-T
°C
Wind Press
QNH
hPa
Press
MSL
hPa
Rain
since 9 am
mm
Dir
 
Spd
km/h
Gust
km/h
Spd
kts
Gust
kts
22/11:30pm 19.5 16.7 8.7 49 5.8 ESE 13 17 7 9 1019.3 - 0.0
22/11:00pm 19.8 17.0 8.6 48 6.0 ESE 13 17 7 9 1019.3 - 0.0
22/10:30pm 19.9 17.0 8.3 47 6.2 SE 13 15 7 8 1019.0 - 0.0
22/10:00pm 21.0 18.4 7.6 42 7.1 SE 11 15 6 8 1019.0 - 0.0
22/09:30pm 20.9 18.6 7.5 42 7.1 E 9 11 5 6 1018.9 - 0.0
22/09:00pm 22.0 18.8 6.8 37 8.0 SSE 13 19 7 10 1018.6 1015.5 0.0
22/08:30pm 22.2 18.4 6.0 35 8.4 SSE 15 17 8 9 1018.2 - 0.0
22/08:00pm 22.7 18.4 5.4 32 8.9 SSE 17 19 9 10 1017.8 - 0.0
22/07:30pm 23.8 20.5 4.7 29 9.8 SSE 11 13 6 7 1017.6 - 0.0
22/07:00pm 25.4 22.6 3.1 23 11.2 SSE 7 9 4 5 1017.1 - 0.0
22/06:30pm 26.6 23.4 2.8 21 12.0 S 9 13 5 7 1016.7 - 0.0
22/06:00pm 28.2 24.2 0.3 16 13.6 SSE 11 15 6 8 1016.5 1013.4 0.0
22/05:30pm 29.1 24.5 -0.8 14 14.4 S 13 17 7 9 1016.3 - 0.0
22/05:00pm 29.6 25.2 0.4 15 14.4 S 13 28 7 15 1016.3 - 0.0
22/04:30pm 29.5 25.8 0.2 15 14.4 SSW 9 17 5 9 1016.4 - 0.0
22/04:00pm 29.6 25.0 -0.9 14 14.7 SW 13 20 7 11 1016.4 - 0.0
22/03:30pm 29.5 25.7 -0.7 14 14.6 WSW 9 20 5 11 1016.5 - 0.0
22/03:00pm 29.7 25.3 0.2 15 14.5 S 13 20 7 11 1016.7 1013.6 0.0
22/02:30pm 29.6 25.6 0.8 15 14.3 W 11 15 6 8 1017.0 - 0.0
22/02:00pm 29.3 25.6 0.1 15 14.3 W 9 17 5 9 1017.5 - 0.0
22/01:30pm 28.3 23.9 0.1 16 13.7 SW 13 17 7 9 1018.0 - 0.0
22/01:00pm 27.9 24.9 4.0 21 12.4 WNW 9 11 5 6 1018.5 - 0.0
22/12:30pm 26.9 24.8 5.6 25 11.3 SW 6 9 3 5 1019.0 - 0.0
22/12:00pm 26.1 23.3 5.0 25 11.0 S 9 15 5 8 1019.6 1016.5 0.0
22/11:30am 25.3 22.7 6.3 29 10.1 ESE 9 15 5 8 1020.0 - 0.0
22/11:00am 23.9 20.6 6.5 32 9.2 SE 13 17 7 9 1020.3 - 0.0
22/10:30am 23.1 19.5 6.9 35 8.6 SE 15 19 8 10 1020.4 - 0.0
22/10:00am 22.4 18.8 6.6 36 8.3 SE 15 19 8 10 1020.2 - 0.0
22/09:30am 21.3 17.8 7.0 39 7.5 ESE 15 20 8 11 1020.0 - 0.0
22/09:00am 20.0 16.8 7.0 43 6.8 ESE 13 20 7 11 1019.9 1016.8 0.0
22/08:30am 18.9 15.4 5.6 41 6.7 SE 13 19 7 10 1019.6 - 0.0
22/08:00am 15.5 12.5 5.8 52 4.8 SSE 11 17 6 9 1019.3 - 0.0
22/07:54am 14.3 12.7 6.2 58 4.0 E 4 17 2 9 1019.3 - 0.0
22/07:30am 19.4 16.7 2.4 32 8.1 ENE 6 7 3 4 1018.7 - 0.0
22/07:00am 18.5 15.7 3.0 35 7.4 ENE 7 9 4 5 1018.5 - 0.0
22/06:30am 18.8 15.5 2.3 33 7.8 ENE 9 13 5 7 1018.2 - 0.0
22/06:00am 17.4 14.1 2.5 37 7.0 ENE 9 11 5 6 1018.1 1015.0 0.0
22/05:30am 17.9 15.1 2.1 34 7.4 E 6 9 3 5 1018.0 - 0.0
22/05:00am 18.4 14.6 1.6 32 7.8 SW 11 13 6 7 1017.7 - 0.0
22/04:30am 19.6 14.8 0.4 27 8.8 W 15 24 8 13 1016.9 - 0.0
22/04:00am 20.8 15.0 0.2 25 9.5 N 20 24 11 13 1016.5 - 0.0
22/03:30am 21.9 15.6 -1.0 21 10.4 N 22 28 12 15 1016.5 - 0.0
22/03:00am 21.1 15.5 -0.3 24 9.8 N 19 24 10 13 1016.6 1013.5 0.0
22/02:30am 21.9 16.0 -1.0 21 10.4 N 20 24 11 13 1016.7 - 0.0
22/02:00am 22.4 16.0 -1.5 20 10.8 N 22 24 12 13 1016.9 - 0.0
22/01:30am 22.2 17.3 -0.4 22 10.4 N 15 19 8 10 1016.9 - 0.0
22/01:00am 22.3 17.4 -0.6 21 10.5 N 15 17 8 9 1017.2 - 0.0
22/12:30am 21.7 17.7 0.5 24 9.9 N 11 13 6 7 1017.2 - 0.0
22/12:00am 21.9 17.5 0.5 24 10.0 N 13 17 7 9 1017.2 1014.2 0.0
 
Date/Time
CST
Temp
°C
App
Temp
°C
Dew
Point
Rel
Hum
%
Delta-T
°C
Wind Press
QNH
hPa
Press
MSL
hPa
Rain
since 9 am
mm
Dir
 
Spd
km/h
Gust
km/h
Spd
kts
Gust
kts
21/11:30pm 22.1 18.8 2.3 27 9.6 N 9 13 5 7 1017.2 - 0.0
21/11:00pm 21.6 19.4 1.0 25 9.7 N 2 9 1 5 1017.4 - 0.0
21/10:30pm 23.0 19.2 -0.6 21 10.9 N 9 11 5 6 1017.6 - 0.0
21/10:00pm 19.5 16.5 4.0 36 7.6 ESE 9 11 5 6 1017.6 - 0.0
21/09:30pm 20.9 18.8 5.7 37 7.8 N 6 7 3 4 1017.2 - 0.0
21/09:00pm 23.3 20.0 2.2 25 10.3 NNE 9 11 5 6 1017.1 1014.0 0.0
21/08:30pm 24.9 20.4 0.0 19 11.8 NE 13 15 7 8 1016.7 - 0.0
21/08:00pm 24.7 20.5 1.8 22 11.2 NNE 13 13 7 7 1016.4 - 0.0
21/07:30pm 25.1 20.9 1.5 21 11.5 NNE 13 13 7 7 1016.2 - 0.0
21/07:00pm 26.4 22.9 1.3 19 12.3 NNE 9 11 5 6 1016.1 - 0.0
21/06:30pm 27.2 24.2 2.3 20 12.5 NNE 7 9 4 5 1015.8 - 0.0
21/06:00pm 28.2 26.0 1.1 17 13.4 SE 2 7 1 4 1015.4 1012.3 0.0
21/05:30pm 28.8 25.4 -2.0 13 14.5 SSE 6 13 3 7 1015.5 - 0.0
21/05:00pm 29.2 25.6 -2.3 13 14.8 ENE 7 15 4 8 1015.3 - 0.0
21/04:30pm 29.2 25.2 -2.3 13 14.8 E 9 13 5 7 1015.1 - 0.0
21/04:00pm 29.5 25.6 -5.0 10 15.5 SE 7 20 4 11 1015.0 - 0.0
21/03:30pm 29.2 24.7 -3.3 12 15.0 NE 11 19 6 10 1015.2 - 0.0
21/03:00pm 29.0 24.9 -3.4 12 14.9 SSE 9 19 5 10 1015.5 1012.4 0.0
21/02:30pm 28.8 24.8 -2.0 13 14.5 NNW 9 17 5 9 1015.7 - 0.0
21/02:00pm 28.7 24.1 -4.3 11 14.9 N 11 19 6 10 1015.9 - 0.0
21/01:30pm 28.9 24.8 -2.7 12 14.7 NNW 9 13 5 7 1016.4 - 0.0
21/01:00pm 28.3 23.2 -1.6 14 14.1 N 15 28 8 15 1016.8 - 0.0
21/12:30pm 28.7 22.5 -3.3 12 14.7 N 20 33 11 18 1017.2 - 0.0
21/12:00pm 28.4 21.5 -2.7 13 14.4 N 24 33 13 18 1017.7 1014.6 0.0
21/11:30am 27.8 21.7 -2.0 14 13.9 N 20 30 11 16 1018.0 - 0.0
21/11:00am 27.0 20.2 -2.2 14 13.5 N 24 30 13 16 1018.2 - 0.0
21/10:30am 26.6 19.7 -2.8 14 13.4 N 24 32 13 17 1018.2 - 0.0
21/10:00am 26.0 19.2 -1.6 16 12.8 N 24 32 13 17 1018.3 - 0.0
21/09:30am 25.3 19.8 -2.0 16 12.5 N 17 26 9 14 1018.3 - 0.0

Other Formats:

Comma delimited format used in spreadsheet applications
http://www.bom.gov.au/fwo/IDD60801/IDD60801.94461.axf

JavaScript Object Notation format (JSON) in row-major order
http://www.bom.gov.au/fwo/IDD60801/IDD60801.94461.json